createdAt,value
2023-01-22T02:25:02.218Z,101473.57
2023-01-22T02:27:29.708Z,101482.70
2023-01-22T02:29:56.999Z,101480.45
2023-01-22T02:32:24.176Z,101480.76
2023-01-22T02:34:52.365Z,101474.55
2023-01-22T02:37:19.516Z,101477.48
2023-01-22T02:39:47.914Z,101474.31
2023-01-22T02:42:15.211Z,101476.56
2023-01-22T02:44:42.426Z,101478.70
2023-01-22T02:47:09.653Z,101482.98
2023-01-22T02:49:36.899Z,101488.98
2023-01-22T02:52:04.201Z,101489.23
2023-01-22T02:54:31.443Z,101487.17
2023-01-22T02:56:58.639Z,101485.35
2023-01-22T02:59:25.969Z,101487.27
2023-01-22T03:01:53.072Z,101485.36
2023-01-22T03:04:20.200Z,101480.40
2023-01-22T03:06:47.500Z,101476.63
2023-01-22T03:09:16.339Z,101473.80
2023-01-22T03:11:44.714Z,101471.14
2023-01-22T03:14:33.536Z,101475.21
2023-01-22T03:17:19.419Z,101472.36
2023-01-22T03:20:04.997Z,101471.23
2023-01-22T03:22:32.509Z,101472.52
2023-01-22T03:25:01.595Z,101470.56
2023-01-22T03:27:30.071Z,101473.10
2023-01-22T03:29:58.337Z,101473.67
2023-01-22T03:32:25.900Z,101476.68
2023-01-22T03:34:53.994Z,101479.34
2023-01-22T03:37:22.031Z,101476.84
2023-01-22T03:39:51.177Z,101477.05
2023-01-22T03:42:25.159Z,101479.41
2023-01-22T03:44:52.267Z,101481.14
2023-01-22T03:47:19.823Z,101485.32
2023-01-22T03:49:46.925Z,101487.48
2023-01-22T03:52:14.011Z,101492.43
2023-01-22T03:54:41.266Z,101489.77
2023-01-22T03:57:08.973Z,101497.02
2023-01-22T03:59:37.930Z,101498.83
2023-01-22T04:02:05.303Z,101501.86
2023-01-22T04:04:35.301Z,101506.55
2023-01-22T04:07:02.740Z,101504.91
2023-01-22T04:09:29.910Z,101501.52
2023-01-22T04:11:58.020Z,101513.11
2023-01-22T04:14:26.286Z,101516.00
2023-01-22T04:16:59.256Z,101515.27
2023-01-22T04:19:39.896Z,101520.68
2023-01-22T04:22:17.856Z,101514.86
2023-01-22T04:24:46.019Z,101513.55
2023-01-22T04:27:13.222Z,101512.26
2023-01-22T04:29:40.342Z,101519.13
2023-01-22T04:32:08.290Z,101521.39
2023-01-22T04:35:01.020Z,101521.20
2023-01-22T04:37:54.362Z,101524.27
2023-01-22T04:40:21.496Z,101525.39
2023-01-22T04:42:49.658Z,101526.05
2023-01-22T04:45:16.962Z,101525.13
2023-01-22T04:47:45.102Z,101531.99
2023-01-22T04:50:16.894Z,101537.84
2023-01-22T04:52:44.316Z,101537.27
2023-01-22T04:55:12.110Z,101540.23
2023-01-22T04:57:47.578Z,101545.71
2023-01-22T05:00:15.478Z,101548.10
2023-01-22T05:02:43.030Z,101551.48
2023-01-22T05:05:10.354Z,101558.71
2023-01-22T05:07:37.555Z,101556.61
2023-01-22T05:10:05.105Z,101560.77
2023-01-22T05:12:32.280Z,101557.00
2023-01-22T05:15:00.878Z,101558.14
2023-01-22T05:17:28.025Z,101559.84
2023-01-22T05:19:55.743Z,101561.17
2023-01-22T05:22:22.957Z,101565.20
2023-01-22T05:24:50.084Z,101569.83
2023-01-22T05:27:17.853Z,101573.69
2023-01-22T05:29:53.338Z,101578.46
2023-01-22T05:32:39.177Z,101576.58
2023-01-22T05:35:07.140Z,101581.17
2023-01-22T05:37:36.793Z,101584.71
2023-01-22T05:40:05.586Z,101589.16
2023-01-22T05:42:34.736Z,101591.73
2023-01-22T05:45:03.206Z,101595.80
2023-01-22T05:47:31.997Z,101591.86
2023-01-22T05:50:30.553Z,101592.97
2023-01-22T05:53:04.683Z,101591.32
2023-01-22T05:55:32.716Z,101596.10
2023-01-22T05:58:00.766Z,101593.44
2023-01-22T06:00:28.352Z,101592.95
2023-01-22T06:02:58.037Z,101588.71
2023-01-22T06:05:25.991Z,101592.52
2023-01-22T06:07:59.382Z,101589.66
2023-01-22T06:10:28.977Z,101586.61
2023-01-22T10:23:27.535Z,101615.16
2023-01-22T10:26:01.263Z,101612.78
2023-01-22T10:28:28.408Z,101620.72
2023-01-22T10:30:59.139Z,101611.91
2023-01-22T10:33:27.604Z,101610.41
2023-01-22T10:35:57.033Z,101613.97
2023-01-22T10:38:30.129Z,101607.80
2023-01-22T10:41:02.039Z,101609.27
2023-01-22T10:43:36.745Z,101605.24
2023-01-22T10:46:05.669Z,101607.64
2023-01-22T10:48:33.364Z,101605.47
2023-01-22T10:51:00.658Z,101599.72
2023-01-22T10:53:37.643Z,101605.21
2023-01-22T10:56:07.092Z,101606.06
2023-01-22T10:58:36.417Z,101596.27
2023-01-22T11:01:20.392Z,101597.66
2023-01-22T11:03:47.562Z,101603.25
2023-01-22T11:06:20.317Z,101601.48
2023-01-22T11:08:53.440Z,101603.77
2023-01-22T11:11:25.174Z,101600.98
2023-01-22T11:13:55.383Z,101600.13
2023-01-22T11:16:24.055Z,101597.59
2023-01-22T11:18:54.135Z,101600.77
2023-01-22T11:21:33.034Z,101602.54
2023-01-22T11:24:12.201Z,101598.81
2023-01-22T11:26:39.335Z,101599.87
2023-01-22T11:29:31.119Z,101598.25
2023-01-22T11:32:19.391Z,101599.35
2023-01-22T11:34:49.511Z,101599.13
2023-01-22T11:37:19.425Z,101595.55
2023-01-22T11:39:53.815Z,101593.56
2023-01-22T11:42:33.042Z,101593.33
2023-01-22T11:45:31.485Z,101597.02
2023-01-22T11:48:24.212Z,101595.89
2023-01-22T11:51:12.782Z,101598.81
2023-01-22T11:54:07.707Z,101599.33
2023-01-22T11:56:50.349Z,101601.41
2023-01-22T11:59:23.515Z,101602.11
2023-01-22T12:02:28.122Z,101602.18
2023-01-22T12:05:08.749Z,101600.02
2023-01-22T12:07:41.954Z,101603.55
2023-01-22T12:10:27.180Z,101601.65
2023-01-22T12:13:00.633Z,101606.98
2023-01-22T12:15:40.061Z,101611.24
2023-01-22T12:18:25.991Z,101611.45
2023-01-22T12:21:05.766Z,101615.14
2023-01-22T12:23:54.557Z,101608.95
2023-01-22T12:26:26.976Z,101603.92
2023-01-22T12:29:28.460Z,101603.77
2023-01-22T12:32:11.078Z,101599.30
2023-01-22T12:34:43.413Z,101601.73
2023-01-22T12:37:13.785Z,101604.63
2023-01-22T12:39:46.620Z,101608.25
2023-01-22T12:42:41.337Z,101612.54
2023-01-22T12:45:27.844Z,101611.73
2023-01-22T12:48:05.766Z,101613.45
2023-01-22T12:50:32.982Z,101616.69
2023-01-22T12:53:03.990Z,101617.72
2023-01-22T12:55:35.374Z,101614.36
2023-01-22T12:58:02.681Z,101610.04
2023-01-22T13:00:39.376Z,101609.01
2023-01-22T13:03:33.077Z,101609.73
2023-01-22T13:06:01.987Z,101607.22
2023-01-22T13:08:38.147Z,101610.50
2023-01-22T13:11:10.655Z,101611.30
2023-01-22T13:13:37.699Z,101617.32
2023-01-22T13:16:33.387Z,101615.23
2023-01-22T13:19:00.882Z,101620.08
2023-01-22T13:21:32.492Z,101618.98
2023-01-22T13:24:05.657Z,101623.42
2023-01-22T13:26:34.603Z,101624.42
2023-01-22T13:29:03.790Z,101623.46
2023-01-22T13:31:31.016Z,101627.20
2023-01-22T13:34:08.976Z,101631.77
2023-01-22T13:36:43.984Z,101630.28
2023-01-22T13:39:37.409Z,101629.15
2023-01-22T13:42:05.252Z,101633.61
2023-01-22T13:44:36.939Z,101630.45
2023-01-22T13:47:04.142Z,101629.65
2023-01-22T13:49:32.447Z,101628.91
2023-01-22T13:52:04.748Z,101637.27
2023-01-22T13:54:37.106Z,101634.62
2023-01-22T13:57:05.630Z,101628.53
2023-01-22T13:59:35.310Z,101637.23
2023-01-22T14:02:21.904Z,101638.35
2023-01-22T14:04:49.355Z,101634.86
2023-01-22T14:07:42.901Z,101634.23
2023-01-22T14:10:22.211Z,101637.27
2023-01-22T14:13:05.897Z,101639.40
2023-01-22T14:15:33.327Z,101638.79
2023-01-22T14:18:21.436Z,101640.45
2023-01-22T14:20:48.895Z,101639.83
2023-01-22T14:23:15.941Z,101645.19
2023-01-22T14:25:51.040Z,101648.23
2023-01-22T14:28:18.241Z,101649.89
2023-01-22T14:30:45.924Z,101650.75
2023-01-22T14:33:15.308Z,101652.44
2023-01-22T14:35:42.707Z,101652.83
2023-01-22T14:38:10.000Z,101653.35
2023-01-22T14:40:37.179Z,101654.85
2023-01-22T14:43:04.321Z,101657.30
2023-01-22T14:45:31.540Z,101656.15
2023-01-22T14:47:58.894Z,101664.38
2023-01-22T14:50:26.012Z,101659.92
2023-01-22T14:52:53.257Z,101659.41
2023-01-22T14:55:20.364Z,101663.96
2023-01-22T14:57:47.767Z,101662.86
2023-01-22T15:00:17.052Z,101656.81
2023-01-22T15:02:44.451Z,101663.58
2023-01-22T15:05:12.281Z,101658.96
2023-01-22T15:07:39.535Z,101659.42
2023-01-22T15:10:07.793Z,101658.83
2023-01-22T15:12:34.950Z,101664.27
2023-01-22T15:15:02.171Z,101664.63
2023-01-22T15:17:29.334Z,101664.67
2023-01-22T15:19:57.413Z,101667.86
2023-01-22T15:22:24.597Z,101666.50
2023-01-22T15:24:51.778Z,101664.05
2023-01-22T15:27:19.097Z,101666.16
2023-01-22T15:29:46.411Z,101661.81
2023-01-22T15:32:13.822Z,101661.63
2023-01-22T15:34:41.005Z,101660.74
2023-01-22T15:37:08.174Z,101665.03
2023-01-22T15:39:35.461Z,101666.20
2023-01-22T15:42:02.714Z,101664.73
2023-01-22T15:44:29.921Z,101668.73
2023-01-22T15:47:01.342Z,101667.24
2023-01-22T15:49:28.584Z,101666.27
2023-01-22T15:51:55.762Z,101671.36
2023-01-22T15:54:25.639Z,101671.16
2023-01-22T15:56:52.977Z,101668.95
2023-01-22T15:59:20.227Z,101669.83
2023-01-22T16:01:48.084Z,101664.93
2023-01-22T16:04:15.300Z,101666.17
2023-01-22T16:06:42.400Z,101665.50
2023-01-22T16:09:09.585Z,101663.45
2023-01-22T16:11:37.152Z,101663.34
2023-01-22T16:14:04.318Z,101668.77
2023-01-22T16:16:33.524Z,101665.69
2023-01-22T16:19:01.652Z,101660.73
2023-01-22T16:21:28.945Z,101663.80
2023-01-22T16:23:58.479Z,101669.71
2023-01-22T16:26:31.083Z,101664.42
2023-01-22T16:28:59.368Z,101672.61
2023-01-22T16:31:28.894Z,101673.95
2023-01-22T16:33:57.743Z,101670.36
2023-01-22T16:36:26.963Z,101670.56
2023-01-22T16:38:54.176Z,101665.80
2023-01-22T16:41:29.193Z,101672.56
2023-01-22T16:44:19.295Z,101673.33
2023-01-22T16:46:49.735Z,101674.27
2023-01-22T16:49:24.743Z,101678.47
2023-01-22T16:51:53.524Z,101677.62
2023-01-22T16:54:28.595Z,101683.42
2023-01-22T16:56:56.666Z,101681.89
2023-01-22T16:59:24.392Z,101684.11
2023-01-22T17:01:51.644Z,101688.94
2023-01-22T17:04:18.906Z,101689.09
2023-01-22T17:06:54.491Z,101691.80
2023-01-22T17:09:25.847Z,101689.40
2023-01-22T17:11:54.159Z,101691.08
2023-01-22T17:14:22.433Z,101689.70
2023-01-22T17:16:49.662Z,101689.34
2023-01-22T17:19:17.002Z,101688.21
2023-01-22T17:21:44.301Z,101690.65
2023-01-22T17:24:12.003Z,101694.50
2023-01-22T17:26:39.762Z,101695.69
2023-01-22T17:29:09.430Z,101698.92
2023-01-22T17:31:37.337Z,101696.47
2023-01-22T17:34:04.884Z,101700.66
2023-01-22T17:36:32.141Z,101703.86
2023-01-22T17:39:00.278Z,101697.29
2023-01-22T17:41:27.485Z,101691.77
2023-01-22T17:43:56.212Z,101694.47
2023-01-22T17:46:29.339Z,101697.14
2023-01-22T17:48:56.505Z,101694.95
2023-01-22T17:51:25.625Z,101696.91
2023-01-22T17:53:53.330Z,101696.34
2023-01-22T17:56:26.240Z,101702.64
2023-01-22T17:58:55.219Z,101706.27
2023-01-22T18:01:24.181Z,101706.59
2023-01-22T18:03:51.604Z,101704.17
2023-01-22T18:06:18.807Z,101700.76
2023-01-22T18:08:45.992Z,101704.10
2023-01-22T18:11:15.450Z,101707.08
2023-01-22T22:22:05.227Z,101671.27
2023-01-22T22:24:32.616Z,101674.71
2023-01-22T22:26:59.755Z,101677.59
2023-01-22T22:29:26.982Z,101682.42
2023-01-22T22:31:54.125Z,101679.35
2023-01-22T22:34:21.366Z,101678.49
2023-01-22T22:36:48.667Z,101678.16
2023-01-22T22:39:15.738Z,101671.16
2023-01-22T22:41:42.872Z,101670.45
2023-01-22T22:44:10.977Z,101669.05
2023-01-22T22:46:38.847Z,101671.26
2023-01-22T22:49:06.435Z,101672.55
2023-01-22T22:51:35.350Z,101675.40
2023-01-22T22:54:04.863Z,101675.77
2023-01-22T22:56:32.167Z,101670.61
2023-01-22T22:59:01.056Z,101661.07
2023-01-22T23:01:28.529Z,101666.85
2023-01-22T23:03:55.781Z,101664.61
2023-01-22T23:06:26.442Z,101660.97
2023-01-22T23:09:08.157Z,101661.02
2023-01-22T23:11:36.434Z,101657.77
2023-01-22T23:14:03.845Z,101661.83
2023-01-22T23:16:33.590Z,101659.42
2023-01-22T23:19:01.966Z,101661.65
2023-01-22T23:21:29.555Z,101657.81
2023-01-22T23:23:56.841Z,101655.27
2023-01-22T23:26:28.299Z,101656.34
2023-01-22T23:29:03.642Z,101657.40
2023-01-22T23:31:31.935Z,101656.20
2023-01-22T23:34:01.536Z,101656.89
2023-01-22T23:36:28.690Z,101653.64
2023-01-22T23:38:55.864Z,101654.66
2023-01-22T23:41:23.148Z,101659.61
2023-01-22T23:43:50.500Z,101652.06
2023-01-22T23:46:19.704Z,101655.80
2023-01-22T23:48:47.271Z,101662.60
2023-01-22T23:51:15.180Z,101657.98
2023-01-22T23:53:43.978Z,101663.95
2023-01-22T23:56:11.965Z,101661.72
2023-01-22T23:58:39.375Z,101660.92
